Portada
METAR-TAF:

METAR-TAF

Aeropuertos :

Dubuque, Iowa, Estados Unidos

latitud: 42-23-52N, longitud: 090-42-13W, altitud: 328 m

Observación

El informe se hizo hace 21 minutos, a las 10:53 UTC
Viento 10 kt del norte
Temperatura 15°C
Humedad 59%
Presión 1017 hPa
Visibilidad: 16.1 km
Cielo despejado

METAR: KDBQ 191053Z 01010KT 10SM CLR 15/07 A3002 RMK AO2 SLP159 T01500067 $

Hora: 06:14 (11:14 UTC)

Pronóstico

El informe se hizo hace 5 horas y 54 minutos, a las 05:20 UTC
Pronóstico válido del 19 a las 06 UTC al 20 a las 06 UTC
Viento 8 kt del norte-noroeste
Visibilidad: 10 km
Cielo despejado
A partir de las 19 a las 1300 UTC
Viento 8 kt del noreste
Visibilidad: 10 km
Escasas nubes a una altura de 25000 ft
A partir de las 19 a las 1800 UTC
Viento 8 kt del este-sureste
Visibilidad: 10 km
Nubes dispersas a una altura de 20000 ft

TAF: KDBQ 190520Z 1906/2006 34008KT P6SM SKC FM191300 05008KT P6SM FEW250 FM191800 11008KT P6SM SCT200

Observaciones y pronósticos meteorológicos de más de 4000 aeropuertos (mensajes METAR y TAF).

Los puntos amarillos y rojos representan las estaciones disponibles.

Ponga el ratón en el punto deseado para ver el nombre de la estación.

Haga clic para ver las observaciones y los pronósticos meteorológicos.

Para cambiar el mapa : haga clic en los botones verdes con una cruz de color negro para hacer un zoom, en el botón verde con un guión para alejar o en las flechas verdes para mapas adyacentes.


METAR-TAF: